Time;durP1;ratioP1;P1;durP2;ratioP2;P2;SDS_P1;SDS_P2;PMS_P1;PMS_P2;Temp;Humidity;BMP_temperature;BMP_pressure;BME280_temperature;BME280_humidity;BME280_pressure;Samples;Min_cycle;Max_cycle;Signal;HPM_P1;HPM_P2
2022/12/05 00:01:49;;;;;;;;;36.75;24.25;;;;;;;;5064823;28;61825;-78
2022/12/05 00:04:14;;;;;;;;;29.50;21.50;;;;;;;;5046675;28;62193;-78
2022/12/05 00:06:40;;;;;;;;;29.50;24.50;;;;;;;;5063475;28;62688;-78
2022/12/05 00:09:07;;;;;;;;;35.00;25.25;;;;;;;;5064973;28;61921;-78
2022/12/05 00:11:34;;;;;;;;;33.50;23.00;;;;;;;;5065011;28;62170;-78
2022/12/05 00:14:00;;;;;;;;;31.75;26.25;;;;;;;;5046786;28;62122;-78
2022/12/05 00:16:26;;;;;;;;;28.25;24.50;;;;;;;;5064094;28;61995;-78
2022/12/05 00:18:52;;;;;;;;;36.50;22.50;;;;;;;;5064094;28;61942;-78
2022/12/05 00:21:19;;;;;;;;;29.75;19.75;;;;;;;;5046291;28;62047;-77
2022/12/05 00:23:44;;;;;;;;;28.00;23.75;;;;;;;;5065004;28;62094;-77
2022/12/05 00:26:10;;;;;;;;;32.50;23.75;;;;;;;;5046065;28;63785;-77
2022/12/05 00:28:36;;;;;;;;;40.50;28.25;;;;;;;;5046406;28;61847;-78
2022/12/05 00:31:08;;;;;;;;;40.75;28.00;;;;;;;;5064424;28;61943;-77
2022/12/05 00:33:34;;;;;;;;;36.25;27.50;;;;;;;;5064506;28;61726;-78
2022/12/05 00:36:07;;;;;;;;;29.25;23.50;;;;;;;;5045192;28;63778;-78
2022/12/05 00:38:32;;;;;;;;;42.25;28.75;;;;;;;;5064670;28;61814;-77
2022/12/05 00:41:04;;;;;;;;;29.25;24.00;;;;;;;;5046126;28;61976;-78
2022/12/05 00:43:29;;;;;;;;;24.50;20.00;;;;;;;;5064805;28;62047;-78
2022/12/05 00:45:55;;;;;;;;;22.25;19.50;;;;;;;;5063628;28;62596;-77
2022/12/05 00:48:20;;;;;;;;;39.25;29.50;;;;;;;;5046058;28;61840;-77
2022/12/05 00:50:45;;;;;;;;;47.75;25.75;;;;;;;;5063851;28;62030;-78
2022/12/05 00:53:10;;;;;;;;;30.50;23.25;;;;;;;;5064498;28;62403;-78
2022/12/05 00:55:36;;;;;;;;;29.00;24.00;;;;;;;;5063916;28;62926;-78
2022/12/05 00:58:01;;;;;;;;;33.00;24.75;;;;;;;;5064029;28;61841;-77
2022/12/05 01:00:27;;;;;;;;;40.00;31.00;;;;;;;;5064227;28;61801;-78
2022/12/05 01:02:52;;;;;;;;;37.00;30.75;;;;;;;;5063968;28;61830;-77
2022/12/05 01:05:17;;;;;;;;;25.25;16.50;;;;;;;;5062727;28;61923;-77
2022/12/05 01:07:42;;;;;;;;;30.00;24.25;;;;;;;;5064246;28;61976;-77
2022/12/05 01:10:08;;;;;;;;;30.50;23.25;;;;;;;;5064073;28;61927;-77
2022/12/05 01:12:33;;;;;;;;;30.25;25.50;;;;;;;;5064133;28;61848;-77
2022/12/05 01:14:58;;;;;;;;;32.25;22.50;;;;;;;;5045190;28;63559;-78
2022/12/05 01:17:23;;;;;;;;;37.75;26.75;;;;;;;;5045413;28;62037;-78
2022/12/05 01:19:49;;;;;;;;;34.00;23.25;;;;;;;;5045299;28;61913;-77
2022/12/05 01:22:14;;;;;;;;;34.25;23.50;;;;;;;;5064063;28;61915;-78
2022/12/05 01:24:40;;;;;;;;;32.25;21.25;;;;;;;;5063035;28;61978;-77
2022/12/05 01:27:05;;;;;;;;;36.50;26.25;;;;;;;;5045492;28;62156;-78
2022/12/05 01:29:30;;;;;;;;;42.25;30.25;;;;;;;;5064007;28;61903;-77
2022/12/05 01:31:56;;;;;;;;;33.25;25.25;;;;;;;;5063068;28;62217;-78
2022/12/05 01:34:21;;;;;;;;;34.25;27.75;;;;;;;;5063202;28;61778;-77
2022/12/05 01:36:46;;;;;;;;;22.50;20.75;;;;;;;;5063195;28;62152;-77
2022/12/05 01:39:13;;;;;;;;;34.25;26.00;;;;;;;;5063607;28;61743;-77
2022/12/05 01:41:40;;;;;;;;;30.50;21.25;;;;;;;;5063910;28;61869;-78
2022/12/05 01:44:11;;;;;;;;;34.50;28.50;;;;;;;;5063050;28;63113;-77
2022/12/05 01:46:57;;;;;;;;;34.00;25.50;;;;;;;;5045131;28;61981;-77
2022/12/05 01:49:22;;;;;;;;;37.00;24.75;;;;;;;;5044307;28;61940;-77
2022/12/05 01:52:01;;;;;;;;;35.25;26.25;;;;;;;;5063448;28;61933;-78
2022/12/05 01:54:27;;;;;;;;;32.75;21.75;;;;;;;;5062770;28;61932;-77
2022/12/05 01:56:57;;;;;;;;;29.75;22.50;;;;;;;;5063473;28;61983;-77
2022/12/05 01:59:23;;;;;;;;;28.75;26.00;;;;;;;;5062909;28;62039;-77
2022/12/05 02:01:48;;;;;;;;;27.50;24.75;;;;;;;;5045196;28;61999;-77
2022/12/05 02:04:14;;;;;;;;;42.00;28.75;;;;;;;;5062737;28;62453;-77
2022/12/05 02:06:39;;;;;;;;;40.00;35.00;;;;;;;;5062881;28;61976;-77
2022/12/05 02:09:05;;;;;;;;;26.00;25.00;;;;;;;;5045264;28;61719;-77
2022/12/05 02:11:32;;;;;;;;;41.00;27.50;;;;;;;;5063088;28;61770;-77
2022/12/05 02:14:16;;;;;;;;;41.00;26.75;;;;;;;;5062139;28;61941;-78
2022/12/05 02:17:01;;;;;;;;;28.00;23.00;;;;;;;;5061973;28;61917;-77
2022/12/05 02:19:30;;;;;;;;;34.00;26.25;;;;;;;;5062789;28;61919;-77
2022/12/05 02:22:04;;;;;;;;;37.75;25.75;;;;;;;;5062732;28;61714;-77
2022/12/05 02:24:40;;;;;;;;;32.75;29.50;;;;;;;;5062425;28;61882;-77
2022/12/05 02:27:05;;;;;;;;;35.25;29.50;;;;;;;;5044828;28;61710;-77
2022/12/05 02:29:49;;;;;;;;;44.75;29.50;;;;;;;;5062684;28;61850;-77
2022/12/05 02:32:18;;;;;;;;;38.25;26.25;;;;;;;;5062514;28;62077;-77
2022/12/05 02:34:47;;;;;;;;;39.00;26.75;;;;;;;;5061919;28;61756;-77
2022/12/05 02:37:25;;;;;;;;;36.75;29.50;;;;;;;;5062562;28;62107;-77
2022/12/05 02:39:50;;;;;;;;;53.25;37.25;;;;;;;;5062728;28;61971;-77
2022/12/05 02:42:23;;;;;;;;;52.75;29.50;;;;;;;;5062774;28;61858;-77
2022/12/05 02:44:56;;;;;;;;;48.25;38.00;;;;;;;;5061915;28;61929;-77
2022/12/05 02:47:23;;;;;;;;;44.75;30.25;;;;;;;;5062427;28;61943;-77
2022/12/05 02:49:51;;;;;;;;;36.50;30.00;;;;;;;;5062264;28;61738;-77
2022/12/05 02:52:16;;;;;;;;;35.25;24.75;;;;;;;;5044831;28;61902;-77
2022/12/05 02:54:43;;;;;;;;;39.00;28.75;;;;;;;;5061729;28;62563;-77
2022/12/05 02:57:10;;;;;;;;;41.75;30.75;;;;;;;;5062439;28;61842;-77
2022/12/05 02:59:36;;;;;;;;;39.25;28.75;;;;;;;;5062062;28;62115;-77
2022/12/05 03:02:01;;;;;;;;;32.00;24.75;;;;;;;;5044527;28;62097;-77
2022/12/05 03:04:27;;;;;;;;;37.25;28.25;;;;;;;;5043530;28;63519;-77
2022/12/05 03:06:57;;;;;;;;;46.25;31.25;;;;;;;;5044009;28;62114;-77
2022/12/05 03:09:43;;;;;;;;;48.75;30.25;;;;;;;;5062079;28;61691;-77
2022/12/05 03:12:15;;;;;;;;;51.75;30.75;;;;;;;;5062091;28;61691;-77
2022/12/05 03:14:45;;;;;;;;;40.50;28.00;;;;;;;;5061480;28;62025;-77
2022/12/05 03:17:14;;;;;;;;;37.25;26.50;;;;;;;;5062107;28;62486;-77
2022/12/05 03:19:42;;;;;;;;;38.50;27.75;;;;;;;;5043669;28;61939;-77
2022/12/05 03:22:23;;;;;;;;;37.00;28.50;;;;;;;;5043933;28;62207;-77
2022/12/05 03:24:48;;;;;;;;;47.25;29.75;;;;;;;;5043337;28;63613;-77
2022/12/05 03:27:20;;;;;;;;;49.25;32.50;;;;;;;;5061991;28;61884;-77
2022/12/05 03:29:45;;;;;;;;;25.75;25.00;;;;;;;;5065672;28;61922;-77
2022/12/05 03:32:18;;;;;;;;;43.00;29.00;;;;;;;;5065367;28;61750;-77
2022/12/05 03:34:59;;;;;;;;;41.25;32.00;;;;;;;;5046592;28;65026;-77
2022/12/05 03:37:36;;;;;;;;;38.75;32.00;;;;;;;;5047322;28;61813;-77
2022/12/05 03:40:08;;;;;;;;;38.00;31.25;;;;;;;;5065570;28;61716;-77
2022/12/05 03:42:35;;;;;;;;;37.25;27.25;;;;;;;;5065080;28;62094;-77
2022/12/05 03:45:05;;;;;;;;;43.75;33.50;;;;;;;;5065045;28;61890;-77
2022/12/05 03:47:42;;;;;;;;;36.00;28.00;;;;;;;;5065234;28;61835;-77
2022/12/05 03:50:28;;;;;;;;;42.25;29.50;;;;;;;;5065132;28;62001;-77
2022/12/05 03:52:56;;;;;;;;;33.75;30.25;;;;;;;;5064994;28;62125;-77
2022/12/05 03:55:22;;;;;;;;;37.50;28.25;;;;;;;;5064394;28;61736;-77
2022/12/05 03:57:51;;;;;;;;;31.75;24.75;;;;;;;;5065165;28;62035;-77
2022/12/05 04:00:19;;;;;;;;;36.00;28.00;;;;;;;;5065299;28;61748;-77
2022/12/05 04:02:56;;;;;;;;;39.50;29.75;;;;;;;;5065027;28;61817;-77
2022/12/05 04:05:24;;;;;;;;;34.50;28.50;;;;;;;;5064357;28;63282;-77
2022/12/05 04:07:52;;;;;;;;;42.25;35.25;;;;;;;;5064860;28;61742;-77
2022/12/05 04:10:20;;;;;;;;;41.25;29.50;;;;;;;;5046827;28;62135;-77
2022/12/05 04:12:47;;;;;;;;;35.00;26.00;;;;;;;;5064825;28;61938;-77
2022/12/05 04:15:24;;;;;;;;;52.75;35.75;;;;;;;;5064408;28;61745;-77
2022/12/05 04:17:49;;;;;;;;;49.25;37.00;;;;;;;;5046605;28;61743;-77
2022/12/05 04:23:25;;;;;;;;;43.75;29.75;;;;;;;;5065186;28;62409;-77
2022/12/05 04:25:56;;;;;;;;;46.25;33.00;;;;;;;;5063691;28;61952;-77
2022/12/05 04:28:27;;;;;;;;;43.00;30.25;;;;;;;;5064854;28;61978;-77
2022/12/05 04:31:06;;;;;;;;;37.50;28.25;;;;;;;;5064216;28;61778;-77
2022/12/05 04:33:55;;;;;;;;;31.50;25.00;;;;;;;;5046485;28;62017;-77
2022/12/05 04:36:29;;;;;;;;;31.75;28.25;;;;;;;;5052688;28;62039;-77
2022/12/05 04:39:04;;;;;;;;;39.50;31.75;;;;;;;;5063597;28;61829;-77
2022/12/05 04:41:42;;;;;;;;;50.25;32.00;;;;;;;;5046060;28;61803;-77
2022/12/05 04:44:10;;;;;;;;;45.25;33.50;;;;;;;;5080040;28;62328;-77
2022/12/05 04:46:37;;;;;;;;;39.75;31.75;;;;;;;;5063804;28;61922;-77
2022/12/05 04:49:05;;;;;;;;;35.00;32.00;;;;;;;;5079141;28;62103;-77
2022/12/05 04:51:33;;;;;;;;;47.25;32.50;;;;;;;;5064150;28;61772;-77
2022/12/05 04:54:01;;;;;;;;;32.75;24.00;;;;;;;;5064169;28;61680;-77
2022/12/05 04:56:29;;;;;;;;;45.50;36.00;;;;;;;;5079100;28;63634;-77
2022/12/05 04:58:54;;;;;;;;;31.75;24.00;;;;;;;;5079831;28;61947;-77
2022/12/05 05:01:23;;;;;;;;;43.25;24.00;;;;;;;;5063734;28;61852;-77
2022/12/05 05:03:48;;;;;;;;;44.00;29.75;;;;;;;;5046468;28;61884;-77
2022/12/05 05:06:14;;;;;;;;;45.25;27.00;;;;;;;;5063289;28;62775;-77
2022/12/05 05:08:50;;;;;;;;;36.75;29.75;;;;;;;;5045983;28;61970;-77
2022/12/05 05:11:16;;;;;;;;;30.00;25.00;;;;;;;;5064099;28;61958;-77
2022/12/05 05:13:41;;;;;;;;;38.75;29.00;;;;;;;;5064344;28;61829;-77
2022/12/05 05:16:07;;;;;;;;;39.25;26.75;;;;;;;;5062756;28;62140;-77
2022/12/05 05:18:34;;;;;;;;;39.75;28.75;;;;;;;;5063625;28;61844;-77
2022/12/05 05:21:00;;;;;;;;;37.75;30.75;;;;;;;;5063709;28;61780;-77
2022/12/05 05:23:29;;;;;;;;;38.25;29.75;;;;;;;;5045654;28;61888;-77
2022/12/05 05:25:55;;;;;;;;;31.25;25.00;;;;;;;;5063474;28;62746;-77
2022/12/05 05:28:21;;;;;;;;;38.50;27.50;;;;;;;;5045589;28;61781;-77
2022/12/05 05:30:46;;;;;;;;;25.00;23.75;;;;;;;;5045640;28;62150;-77
2022/12/05 05:33:11;;;;;;;;;41.75;27.50;;;;;;;;5063805;28;62686;-77
2022/12/05 05:35:37;;;;;;;;;39.50;33.00;;;;;;;;5062569;28;62685;-77
2022/12/05 05:38:02;;;;;;;;;44.25;29.00;;;;;;;;5063567;28;62176;-76
2022/12/05 05:40:28;;;;;;;;;38.75;28.00;;;;;;;;5063401;28;62484;-77
2022/12/05 05:42:53;;;;;;;;;32.50;28.00;;;;;;;;5063790;28;61977;-76
2022/12/05 05:45:18;;;;;;;;;24.75;20.25;;;;;;;;5062757;28;62736;-77
2022/12/05 05:47:44;;;;;;;;;39.25;32.00;;;;;;;;5063525;28;61839;-77
2022/12/05 05:50:10;;;;;;;;;43.25;32.50;;;;;;;;5062880;28;62096;-77
2022/12/05 05:52:36;;;;;;;;;46.50;34.25;;;;;;;;5044898;28;62061;-77
2022/12/05 05:55:02;;;;;;;;;36.25;30.75;;;;;;;;5062733;28;61742;-77
2022/12/05 05:57:27;;;;;;;;;31.50;29.50;;;;;;;;5045022;28;61979;-77
2022/12/05 05:59:53;;;;;;;;;38.00;28.25;;;;;;;;5063376;28;61720;-77
2022/12/05 06:02:18;;;;;;;;;39.75;28.50;;;;;;;;5063508;28;62080;-77
2022/12/05 06:04:43;;;;;;;;;31.25;24.75;;;;;;;;5044258;28;63726;-77
2022/12/05 06:07:08;;;;;;;;;36.50;26.50;;;;;;;;5062707;28;61810;-77
2022/12/05 06:09:34;;;;;;;;;31.00;26.75;;;;;;;;5063245;28;61893;-78
2022/12/05 06:11:59;;;;;;;;;37.75;30.00;;;;;;;;5063128;28;61920;-77
2022/12/05 06:14:24;;;;;;;;;39.75;31.00;;;;;;;;5062347;28;61807;-78
2022/12/05 06:16:50;;;;;;;;;34.50;23.25;;;;;;;;5063046;28;61868;-79
2022/12/05 06:19:15;;;;;;;;;41.25;29.50;;;;;;;;5044716;28;61816;-78
2022/12/05 06:21:40;;;;;;;;;36.00;20.75;;;;;;;;5045965;28;62065;-78
2022/12/05 06:24:06;;;;;;;;;35.25;27.00;;;;;;;;5042665;28;63546;-78
2022/12/05 06:26:31;;;;;;;;;34.75;24.75;;;;;;;;5060669;28;62408;-78
2022/12/05 06:28:56;;;;;;;;;31.50;27.00;;;;;;;;5076759;28;62007;-77
2022/12/05 06:31:23;;;;;;;;;31.50;28.25;;;;;;;;5042106;28;62185;-77
2022/12/05 06:33:48;;;;;;;;;37.75;26.25;;;;;;;;5058163;28;62506;-78
2022/12/05 06:36:15;;;;;;;;;41.75;27.50;;;;;;;;5060284;28;61763;-77
2022/12/05 06:38:40;;;;;;;;;34.50;26.75;;;;;;;;5042652;28;62115;-77
2022/12/05 06:41:07;;;;;;;;;33.75;25.00;;;;;;;;5041986;28;62077;-79
2022/12/05 06:43:32;;;;;;;;;36.50;27.75;;;;;;;;5068194;28;62031;-79
2022/12/05 06:45:58;;;;;;;;;37.00;23.75;;;;;;;;5067482;28;61930;-78
2022/12/05 06:48:23;;;;;;;;;36.25;27.25;;;;;;;;5047546;28;62230;-78
2022/12/05 06:50:50;;;;;;;;;37.50;25.50;;;;;;;;5061346;28;62105;-78
2022/12/05 06:53:15;;;;;;;;;43.50;30.00;;;;;;;;5042129;28;64700;-80
2022/12/05 06:55:40;;;;;;;;;34.00;24.25;;;;;;;;5061475;28;61771;-79
2022/12/05 06:58:05;;;;;;;;;49.75;31.25;;;;;;;;5061972;28;62235;-79
2022/12/05 07:03:14;;;;;;;;;28.75;25.25;;;;;;;;5058741;28;61723;-79
2022/12/05 07:05:40;;;;;;;;;40.00;26.75;;;;;;;;5061306;28;61765;-79
2022/12/05 07:08:05;;;;;;;;;39.25;26.25;;;;;;;;5061669;28;62606;-79
2022/12/05 07:10:30;;;;;;;;;39.00;29.00;;;;;;;;5043491;28;61969;-78
2022/12/05 07:12:55;;;;;;;;;39.50;28.00;;;;;;;;5061495;28;61769;-79
2022/12/05 07:15:21;;;;;;;;;33.75;24.50;;;;;;;;5062372;28;62239;-82
2022/12/05 07:17:46;;;;;;;;;39.25;28.25;;;;;;;;5062382;28;61915;-82
2022/12/05 07:20:11;;;;;;;;;52.75;31.00;;;;;;;;5061767;28;61730;-82
2022/12/05 07:22:37;;;;;;;;;35.00;25.00;;;;;;;;5043572;28;63594;-83
2022/12/05 07:25:03;;;;;;;;;42.00;30.00;;;;;;;;5062668;28;61921;-82
2022/12/05 07:27:28;;;;;;;;;37.25;31.25;;;;;;;;5044403;28;62107;-82
2022/12/05 07:29:54;;;;;;;;;34.00;28.00;;;;;;;;5062182;28;61836;-79
2022/12/05 07:32:20;;;;;;;;;39.50;31.75;;;;;;;;5060805;28;63231;-79
2022/12/05 07:34:45;;;;;;;;;38.75;29.75;;;;;;;;5043637;28;61983;-79
2022/12/05 07:37:12;;;;;;;;;39.75;31.25;;;;;;;;5061457;28;61812;-75
2022/12/05 07:39:37;;;;;;;;;30.25;25.00;;;;;;;;5062262;28;61714;-84
2022/12/05 07:42:03;;;;;;;;;45.00;31.50;;;;;;;;5060764;28;61746;-77
2022/12/05 07:44:28;;;;;;;;;43.75;32.25;;;;;;;;5061637;28;61707;-76
2022/12/05 07:46:53;;;;;;;;;33.75;31.50;;;;;;;;5061653;28;61677;-76
2022/12/05 07:49:18;;;;;;;;;35.00;16.25;;;;;;;;5043299;28;61749;-76
2022/12/05 07:51:44;;;;;;;;;51.50;38.50;;;;;;;;5060668;28;63076;-76
2022/12/05 07:54:09;;;;;;;;;28.50;23.25;;;;;;;;5061399;28;61747;-75
2022/12/05 07:56:34;;;;;;;;;43.00;34.75;;;;;;;;5061512;28;61832;-76
2022/12/05 07:58:59;;;;;;;;;42.50;28.50;;;;;;;;5061715;28;61822;-76
2022/12/05 08:01:26;;;;;;;;;41.25;31.00;;;;;;;;5060356;28;62747;-76
2022/12/05 08:03:53;;;;;;;;;41.25;31.75;;;;;;;;5042740;28;62052;-76
2022/12/05 08:06:20;;;;;;;;;47.00;38.67;;;;;;;;5060971;28;62008;-77
2022/12/05 08:08:48;;;;;;;;;50.00;36.50;;;;;;;;5061364;28;61801;-77
2022/12/05 08:11:16;;;;;;;;;42.75;30.25;;;;;;;;5060383;28;62239;-77
2022/12/05 08:13:41;;;;;;;;;38.75;28.00;;;;;;;;5060464;28;62028;-77
2022/12/05 08:16:09;;;;;;;;;45.50;31.75;;;;;;;;5044737;28;61811;-77
2022/12/05 08:18:34;;;;;;;;;55.25;36.25;;;;;;;;5064446;28;61926;-77
2022/12/05 08:21:03;;;;;;;;;47.00;32.50;;;;;;;;5063710;28;61942;-77
2022/12/05 08:23:30;;;;;;;;;46.75;39.50;;;;;;;;5064399;28;61792;-77
2022/12/05 08:25:55;;;;;;;;;34.00;29.50;;;;;;;;5046734;28;61844;-77
2022/12/05 08:28:20;;;;;;;;;37.75;31.75;;;;;;;;5064947;28;61971;-77
2022/12/05 08:30:46;;;;;;;;;45.00;34.50;;;;;;;;5063800;28;62943;-77
2022/12/05 08:33:11;;;;;;;;;41.50;33.25;;;;;;;;5045852;28;61946;-77
2022/12/05 08:35:36;;;;;;;;;47.50;32.50;;;;;;;;5046375;28;62574;-77
2022/12/05 08:38:02;;;;;;;;;58.25;35.00;;;;;;;;5064943;28;61908;-77
2022/12/05 08:40:27;;;;;;;;;46.75;35.75;;;;;;;;5063866;28;61797;-77
2022/12/05 08:42:52;;;;;;;;;40.50;32.75;;;;;;;;5046452;28;61926;-77
2022/12/05 08:45:18;;;;;;;;;38.75;29.25;;;;;;;;5064345;28;61764;-77
2022/12/05 08:47:43;;;;;;;;;49.50;35.50;;;;;;;;5064437;28;62482;-77
2022/12/05 08:50:08;;;;;;;;;46.25;38.50;;;;;;;;5063194;28;62649;-78
2022/12/05 08:52:33;;;;;;;;;49.50;35.75;;;;;;;;5063935;28;61872;-77
2022/12/05 08:54:58;;;;;;;;;38.50;32.25;;;;;;;;5064655;28;62273;-77
2022/12/05 08:57:24;;;;;;;;;48.75;36.25;;;;;;;;5064185;28;62266;-77
2022/12/05 08:59:49;;;;;;;;;28.25;23.75;;;;;;;;5063834;28;61770;-78
2022/12/05 09:02:14;;;;;;;;;30.75;21.75;;;;;;;;5064107;28;61999;-77
2022/12/05 09:04:39;;;;;;;;;52.75;40.25;;;;;;;;5064212;28;62233;-77
2022/12/05 09:07:07;;;;;;;;;33.25;28.25;;;;;;;;5064205;28;62302;-77
2022/12/05 09:09:32;;;;;;;;;45.25;31.00;;;;;;;;5045286;28;64011;-77
2022/12/05 09:11:59;;;;;;;;;56.25;34.75;;;;;;;;5063985;28;62017;-77
2022/12/05 09:14:24;;;;;;;;;36.00;29.25;;;;;;;;5045558;28;61828;-77
2022/12/05 09:16:50;;;;;;;;;46.75;31.75;;;;;;;;5064237;28;61727;-77
2022/12/05 09:19:16;;;;;;;;;45.25;33.00;;;;;;;;5045043;28;63507;-77
2022/12/05 09:21:42;;;;;;;;;46.75;35.75;;;;;;;;5063456;28;62045;-78
2022/12/05 09:24:09;;;;;;;;;39.25;34.25;;;;;;;;5064086;28;61835;-77
2022/12/05 09:26:34;;;;;;;;;34.33;32.00;;;;;;;;5045284;28;61799;-77
2022/12/05 09:29:00;;;;;;;;;58.75;42.25;;;;;;;;5063159;28;61749;-78
2022/12/05 09:31:29;;;;;;;;;55.00;37.50;;;;;;;;5063345;28;62558;-78
2022/12/05 09:33:54;;;;;;;;;42.50;36.25;;;;;;;;5063657;28;62223;-77
2022/12/05 09:36:22;;;;;;;;;37.25;30.00;;;;;;;;5063666;28;61698;-77
2022/12/05 09:38:47;;;;;;;;;34.25;32.75;;;;;;;;5062948;28;62541;-77
2022/12/05 09:41:15;;;;;;;;;42.75;31.75;;;;;;;;5063546;28;61783;-77
2022/12/05 09:44:13;;;;;;;;;43.50;33.25;;;;;;;;5045232;28;61953;-78
2022/12/05 09:46:50;;;;;;;;;42.75;34.00;;;;;;;;4961901;28;62252;-77
2022/12/05 09:49:16;;;;;;;;;41.50;30.50;;;;;;;;4961311;28;61981;-77
2022/12/05 09:51:43;;;;;;;;;41.25;30.50;;;;;;;;4961411;28;62079;-77
2022/12/05 09:54:10;;;;;;;;;45.00;32.00;;;;;;;;4962024;28;62040;-77
2022/12/05 09:56:37;;;;;;;;;47.25;35.00;;;;;;;;4961864;28;62205;-77
2022/12/05 09:59:04;;;;;;;;;50.00;32.25;;;;;;;;4961009;28;62918;-77
2022/12/05 10:01:35;;;;;;;;;38.50;27.50;;;;;;;;4961718;28;61783;-77
2022/12/05 10:04:06;;;;;;;;;34.75;26.75;;;;;;;;4961933;28;62134;-78
2022/12/05 10:06:36;;;;;;;;;44.00;34.00;;;;;;;;4961600;28;62001;-78
2022/12/05 10:09:13;;;;;;;;;44.50;33.00;;;;;;;;4961147;28;61916;-78
2022/12/05 10:11:57;;;;;;;;;37.25;31.25;;;;;;;;4961472;28;62284;-78
2022/12/05 10:14:34;;;;;;;;;38.75;31.00;;;;;;;;4961475;28;61794;-77
2022/12/05 10:17:08;;;;;;;;;57.00;33.25;;;;;;;;4961609;28;62018;-78
2022/12/05 10:19:38;;;;;;;;;57.75;34.50;;;;;;;;4960831;28;63038;-78
2022/12/05 10:22:09;;;;;;;;;52.75;35.25;;;;;;;;5002521;28;62289;-77
2022/12/05 10:24:53;;;;;;;;;45.25;33.00;;;;;;;;5045078;28;61747;-77
2022/12/05 10:27:30;;;;;;;;;44.25;33.25;;;;;;;;5044800;28;62197;-78
2022/12/05 10:30:01;;;;;;;;;51.75;34.25;;;;;;;;5062249;28;61964;-78
2022/12/05 10:32:29;;;;;;;;;52.25;34.25;;;;;;;;5062135;28;62237;-77
2022/12/05 10:35:01;;;;;;;;;56.00;37.50;;;;;;;;5044630;28;61857;-78
2022/12/05 10:37:29;;;;;;;;;46.25;37.75;;;;;;;;5043799;28;62008;-78
2022/12/05 10:39:54;;;;;;;;;44.50;32.75;;;;;;;;5062073;28;62071;-78
2022/12/05 10:42:32;;;;;;;;;56.50;38.25;;;;;;;;5044368;28;62044;-78
2022/12/05 10:45:01;;;;;;;;;48.25;35.00;;;;;;;;5062674;28;61827;-78
2022/12/05 10:47:27;;;;;;;;;42.50;34.25;;;;;;;;5062894;28;62218;-78
2022/12/05 10:49:53;;;;;;;;;46.25;33.50;;;;;;;;5061800;28;61798;-78
2022/12/05 10:52:19;;;;;;;;;46.75;31.25;;;;;;;;5062181;28;61902;-79
2022/12/05 10:54:48;;;;;;;;;60.75;39.75;;;;;;;;5044483;28;62081;-78
2022/12/05 10:57:21;;;;;;;;;48.00;34.25;;;;;;;;5044164;28;61974;-78
2022/12/05 10:59:47;;;;;;;;;45.25;33.50;;;;;;;;5043812;28;63838;-78
2022/12/05 11:02:32;;;;;;;;;43.75;33.50;;;;;;;;5062058;28;61701;-77
2022/12/05 11:04:57;;;;;;;;;41.75;33.00;;;;;;;;5062236;28;61813;-78
2022/12/05 11:07:26;;;;;;;;;47.75;36.75;;;;;;;;5062228;28;61802;-78
2022/12/05 11:09:55;;;;;;;;;52.50;36.00;;;;;;;;5061743;28;62464;-78
2022/12/05 11:12:22;;;;;;;;;52.75;36.50;;;;;;;;5062228;28;61982;-78
2022/12/05 11:14:53;;;;;;;;;41.25;35.00;;;;;;;;5062223;28;61819;-78
2022/12/05 11:17:23;;;;;;;;;38.50;35.50;;;;;;;;5062313;28;61679;-77
2022/12/05 11:19:48;;;;;;;;;33.50;30.75;;;;;;;;5043336;28;63763;-77
2022/12/05 11:22:15;;;;;;;;;56.50;37.50;;;;;;;;5061592;28;61908;-78
2022/12/05 11:24:40;;;;;;;;;52.25;38.25;;;;;;;;5044195;28;61908;-78
2022/12/05 11:27:15;;;;;;;;;69.00;53.67;;;;;;;;5061973;28;61865;-77
2022/12/05 11:29:41;;;;;;;;;64.33;44.00;;;;;;;;5061649;28;61788;-78
2022/12/05 11:32:16;;;;;;;;;61.33;40.33;;;;;;;;5061038;28;61718;-78
2022/12/05 11:34:46;;;;;;;;;42.75;36.00;;;;;;;;5062044;28;62198;-78
2022/12/05 11:37:13;;;;;;;;;45.00;34.50;;;;;;;;5043371;28;61756;-78
2022/12/05 11:39:39;;;;;;;;;43.75;39.50;;;;;;;;5043258;28;64452;-78
2022/12/05 11:42:23;;;;;;;;;52.75;39.00;;;;;;;;5061322;28;62087;-77
2022/12/05 11:44:48;;;;;;;;;48.75;37.75;;;;;;;;5062164;28;61868;-79
2022/12/05 11:47:21;;;;;;;;;43.50;37.50;;;;;;;;5064023;28;61739;-78
2022/12/05 11:49:49;;;;;;;;;49.25;38.00;;;;;;;;5045416;28;64879;-79
2022/12/05 11:52:24;;;;;;;;;48.00;35.75;;;;;;;;5047252;28;61838;-78
2022/12/05 11:54:52;;;;;;;;;58.75;35.00;;;;;;;;5065189;28;61881;-79
2022/12/05 11:57:25;;;;;;;;;64.33;43.33;;;;;;;;5046937;28;62044;-80
2022/12/05 12:00:09;;;;;;;;;56.00;39.25;;;;;;;;5064688;28;62893;-79
2022/12/05 12:03:03;;;;;;;;;41.00;38.00;;;;;;;;5065120;28;61941;-79
2022/12/05 12:05:37;;;;;;;;;47.75;28.50;;;;;;;;5064810;28;62089;-79
2022/12/05 12:08:22;;;;;;;;;54.00;39.00;;;;;;;;5065558;28;61780;-78
2022/12/05 12:10:56;;;;;;;;;52.00;38.25;;;;;;;;5063385;28;62834;-79
2022/12/05 12:13:21;;;;;;;;;47.00;41.25;;;;;;;;5064595;28;61713;-78
2022/12/05 12:15:46;;;;;;;;;52.00;38.00;;;;;;;;5064499;28;61820;-78
2022/12/05 12:18:18;;;;;;;;;42.25;35.50;;;;;;;;5064453;28;61920;-78
2022/12/05 12:20:51;;;;;;;;;45.75;38.00;;;;;;;;5062193;28;62774;-78
2022/12/05 12:23:25;;;;;;;;;48.50;35.25;;;;;;;;5045292;28;61985;-78
2022/12/05 12:26:03;;;;;;;;;42.25;32.00;;;;;;;;5061957;28;61763;-78
2022/12/05 12:28:36;;;;;;;;;36.75;31.75;;;;;;;;5042612;28;61785;-78
2022/12/05 12:31:02;;;;;;;;;47.75;37.50;;;;;;;;5063883;28;61954;-78
2022/12/05 12:33:37;;;;;;;;;45.75;34.50;;;;;;;;5063762;28;61883;-78
2022/12/05 12:36:11;;;;;;;;;41.50;33.00;;;;;;;;5046084;28;62114;-78
2022/12/05 12:38:36;;;;;;;;;33.25;30.00;;;;;;;;5045821;28;61740;-78
2022/12/05 12:41:22;;;;;;;;;44.50;34.00;;;;;;;;5063986;28;61934;-78
2022/12/05 12:43:47;;;;;;;;;37.00;33.25;;;;;;;;5031728;28;61780;-78
2022/12/05 12:46:23;;;;;;;;;40.00;30.00;;;;;;;;5064430;28;61786;-78
2022/12/05 12:49:05;;;;;;;;;49.00;34.50;;;;;;;;5064103;28;61770;-78
2022/12/05 12:51:32;;;;;;;;;48.75;37.25;;;;;;;;5044585;28;63776;-78
2022/12/05 12:54:03;;;;;;;;;51.75;39.50;;;;;;;;5063739;28;61950;-78
2022/12/05 12:56:37;;;;;;;;;53.50;36.25;;;;;;;;5064039;28;61709;-78
2022/12/05 12:59:09;;;;;;;;;66.75;43.00;;;;;;;;5064474;28;62411;-78
2022/12/05 13:01:53;;;;;;;;;39.75;31.75;;;;;;;;5062495;28;62725;-78
2022/12/05 13:04:18;;;;;;;;;37.25;30.25;;;;;;;;5064089;28;61691;-78
2022/12/05 13:06:47;;;;;;;;;48.50;36.25;;;;;;;;5044845;28;61846;-78
2022/12/05 13:09:18;;;;;;;;;58.00;44.00;;;;;;;;5064252;28;61897;-78
2022/12/05 13:11:45;;;;;;;;;36.75;28.50;;;;;;;;5063294;28;61724;-78
2022/12/05 13:14:12;;;;;;;;;66.00;44.00;;;;;;;;5063592;28;61835;-78
2022/12/05 13:16:39;;;;;;;;;60.00;42.25;;;;;;;;5063694;28;61852;-78
2022/12/05 13:19:05;;;;;;;;;57.75;41.75;;;;;;;;5063615;28;61989;-79
2022/12/05 13:21:31;;;;;;;;;50.00;37.25;;;;;;;;5062687;28;62778;-78
2022/12/05 13:24:02;;;;;;;;;43.25;25.25;;;;;;;;5063448;28;61856;-78
2022/12/05 13:26:27;;;;;;;;;48.50;34.25;;;;;;;;5063608;28;61929;-78
2022/12/05 13:28:58;;;;;;;;;46.25;36.25;;;;;;;;5063171;28;62112;-78
2022/12/05 13:31:34;;;;;;;;;41.75;33.00;;;;;;;;5062777;28;61969;-78
2022/12/05 13:33:59;;;;;;;;;34.25;30.75;;;;;;;;5062927;28;61699;-78
2022/12/05 13:42:16;;;;;;;;;39.25;31.75;;;;;;;;5062707;28;61752;-78
2022/12/05 13:44:41;;;;;;;;;37.00;27.50;;;;;;;;5063263;28;61624;-78
2022/12/05 13:47:19;;;;;;;;;31.00;25.25;;;;;;;;5063318;28;61802;-78
2022/12/05 13:49:54;;;;;;;;;35.00;30.00;;;;;;;;5063462;28;61886;-78
2022/12/05 13:52:25;;;;;;;;;44.75;26.50;;;;;;;;5062519;28;62228;-78
2022/12/05 13:55:02;;;;;;;;;34.50;26.50;;;;;;;;5078816;28;61783;-78
2022/12/05 13:57:37;;;;;;;;;34.25;27.75;;;;;;;;5063099;28;61691;-78
2022/12/05 14:00:08;;;;;;;;;35.75;33.75;;;;;;;;5062936;28;61929;-78
2022/12/05 14:02:40;;;;;;;;;33.75;27.25;;;;;;;;5062243;28;62080;-78
2022/12/05 14:05:17;;;;;;;;;31.00;24.75;;;;;;;;5044467;28;61932;-78
2022/12/05 14:07:46;;;;;;;;;37.75;29.50;;;;;;;;5062651;28;62911;-78
2022/12/05 14:10:15;;;;;;;;;31.00;26.50;;;;;;;;5078707;28;61780;-78
2022/12/05 14:12:49;;;;;;;;;46.00;34.75;;;;;;;;5062317;28;62645;-78
2022/12/05 14:15:24;;;;;;;;;39.75;33.50;;;;;;;;5044458;28;61989;-78
2022/12/05 14:17:54;;;;;;;;;32.75;27.00;;;;;;;;5062548;28;61709;-78
2022/12/05 14:20:23;;;;;;;;;35.50;25.25;;;;;;;;5044574;28;61737;-78
2022/12/05 14:22:48;;;;;;;;;41.75;28.75;;;;;;;;5061327;28;62184;-78
2022/12/05 14:25:33;;;;;;;;;37.25;26.00;;;;;;;;5062698;28;62532;-78
2022/12/05 14:28:09;;;;;;;;;32.75;24.25;;;;;;;;5062418;28;62602;-77
2022/12/05 14:30:43;;;;;;;;;54.00;37.75;;;;;;;;5062593;28;61855;-77
2022/12/05 14:33:13;;;;;;;;;65.75;43.25;;;;;;;;5053694;28;61860;-77
2022/12/05 14:35:40;;;;;;;;;52.50;36.50;;;;;;;;5077185;28;61718;-78
2022/12/05 14:38:06;;;;;;;;;53.25;33.00;;;;;;;;5077689;28;61824;-78